Time;durP1;ratioP1;P1;durP2;ratioP2;P2;SDS_P1;SDS_P2;PMS_P1;PMS_P2;Temp;Humidity;BMP_temperature;BMP_pressure;BME280_temperature;BME280_humidity;BME280_pressure;Samples;Min_cycle;Max_cycle;Signal;HPM_P1;HPM_P2
2023/09/21 00:01:06;;;;;;;3.83;1.70;;;13.90;99.90;;;;;;5077144;28;20040;-75
2023/09/21 00:03:36;;;;;;;3.97;1.60;;;13.80;99.90;;;;;;5078120;28;20032;-76
2023/09/21 00:06:03;;;;;;;3.78;1.52;;;13.80;99.90;;;;;;5061835;28;20017;-76
2023/09/21 00:08:30;;;;;;;3.33;2.08;;;13.70;99.90;;;;;;5079784;28;20043;-75
2023/09/21 00:10:56;;;;;;;2.20;1.42;;;13.70;99.90;;;;;;5079783;28;20072;-76
2023/09/21 00:13:27;;;;;;;3.30;1.90;;;13.80;99.90;;;;;;5079251;28;20081;-76
2023/09/21 00:16:02;;;;;;;5.35;2.10;;;13.80;99.90;;;;;;5060707;28;20070;-75
2023/09/21 00:18:29;;;;;;;3.58;1.58;;;13.80;99.90;;;;;;5064159;28;20037;-76
2023/09/21 00:20:56;;;;;;;2.95;1.80;;;13.80;99.90;;;;;;5082831;28;20426;-75
2023/09/21 00:23:25;;;;;;;3.80;1.55;;;13.80;99.90;;;;;;5083619;28;20021;-75
2023/09/21 00:25:58;;;;;;;2.83;1.23;;;13.80;99.90;;;;;;5083777;28;20066;-75
2023/09/21 00:28:24;;;;;;;2.97;1.67;;;13.80;99.90;;;;;;5066247;28;20024;-76
2023/09/21 00:30:53;;;;;;;2.95;1.50;;;13.80;99.90;;;;;;5060826;28;20035;-76
2023/09/21 00:33:20;;;;;;;2.90;1.40;;;13.70;99.90;;;;;;5078864;28;20028;-76
2023/09/21 00:35:45;;;;;;;5.28;1.45;;;13.70;99.90;;;;;;5079291;28;20070;-76
2023/09/21 00:38:14;;;;;;;2.58;1.83;;;13.60;99.90;;;;;;5045818;28;20036;-75
2023/09/21 00:40:40;;;;;;;3.70;1.45;;;13.60;99.90;;;;;;5079113;28;20020;-75
2023/09/21 00:43:17;;;;;;;4.25;1.83;;;13.60;99.90;;;;;;5072741;28;20029;-76
2023/09/21 00:45:48;;;;;;;3.03;1.67;;;13.60;99.90;;;;;;5072174;28;20103;-76
2023/09/21 00:48:17;;;;;;;2.67;1.70;;;13.60;99.90;;;;;;5070292;28;20025;-76
2023/09/21 00:50:44;;;;;;;4.45;1.90;;;13.60;99.90;;;;;;5081880;28;20029;-76
2023/09/21 00:53:15;;;;;;;4.55;1.77;;;13.60;99.90;;;;;;5081010;28;20037;-76
2023/09/21 00:55:48;;;;;;;2.95;1.60;;;13.60;99.90;;;;;;5082118;28;20516;-76
2023/09/21 00:58:14;;;;;;;3.20;1.50;;;13.60;99.90;;;;;;5080515;28;20078;-76
2023/09/21 01:00:41;;;;;;;3.55;1.70;;;13.60;99.90;;;;;;5076158;28;20112;-76
2023/09/21 01:03:11;;;;;;;4.80;1.70;;;13.60;99.90;;;;;;5059184;28;20028;-76
2023/09/21 01:05:39;;;;;;;4.03;1.60;;;13.60;99.90;;;;;;5059259;28;20025;-76
2023/09/21 01:08:11;;;;;;;4.18;1.55;;;13.60;99.90;;;;;;5077522;28;20050;-76
2023/09/21 01:10:42;;;;;;;2.85;1.25;;;13.50;99.90;;;;;;5076969;28;20032;-76
2023/09/21 01:13:08;;;;;;;5.78;1.50;;;13.50;99.90;;;;;;5076917;28;20091;-76
2023/09/21 01:15:37;;;;;;;2.70;1.48;;;13.50;99.90;;;;;;5059018;28;20036;-76
2023/09/21 01:18:07;;;;;;;4.97;1.65;;;13.50;99.90;;;;;;5060718;28;20035;-76
2023/09/21 01:20:33;;;;;;;2.30;1.60;;;13.50;99.90;;;;;;5059957;28;20036;-76
2023/09/21 01:23:11;;;;;;;3.85;1.67;;;13.50;99.90;;;;;;5060305;28;20488;-76
2023/09/21 01:25:41;;;;;;;4.40;1.65;;;13.50;99.90;;;;;;5078053;28;20016;-76
2023/09/21 01:28:09;;;;;;;3.27;1.67;;;13.50;99.90;;;;;;5077420;28;20032;-76
2023/09/21 01:30:36;;;;;;;2.78;1.60;;;13.50;99.90;;;;;;5079215;28;20139;-76
2023/09/21 01:33:04;;;;;;;3.92;1.48;;;13.50;99.90;;;;;;5062757;28;20037;-76
2023/09/21 01:35:31;;;;;;;3.38;1.55;;;13.50;99.90;;;;;;5079290;28;20028;-75
2023/09/21 01:37:58;;;;;;;4.10;2.20;;;13.50;99.90;;;;;;5056910;28;20479;-76
2023/09/21 01:40:23;;;;;;;3.25;1.80;;;13.40;99.90;;;;;;5074262;28;20036;-76
2023/09/21 01:42:50;;;;;;;3.60;1.70;;;13.40;99.90;;;;;;5073811;28;20431;-75
2023/09/21 01:45:16;;;;;;;4.18;1.63;;;13.40;99.90;;;;;;5072399;28;20061;-75
2023/09/21 01:47:43;;;;;;;3.40;1.38;;;13.40;99.90;;;;;;5073507;28;20499;-76
2023/09/21 01:50:15;;;;;;;3.53;2.03;;;13.40;99.90;;;;;;5057548;28;20029;-73
2023/09/21 01:52:41;;;;;;;2.90;1.55;;;13.40;99.90;;;;;;5054435;28;20052;-73
2023/09/21 01:55:10;;;;;;;2.60;1.70;;;13.30;99.90;;;;;;5054205;28;20079;-73
2023/09/21 01:57:39;;;;;;;5.32;1.83;;;13.30;99.90;;;;;;5053794;28;20465;-73
2023/09/21 02:00:26;;;;;;;3.28;1.85;;;13.30;99.90;;;;;;5054147;28;20124;-73
2023/09/21 02:02:55;;;;;;;5.75;2.30;;;13.30;99.90;;;;;;5035650;28;20029;-73
2023/09/21 02:05:23;;;;;;;3.05;1.73;;;13.30;99.90;;;;;;5036362;28;20032;-73
2023/09/21 02:07:49;;;;;;;3.28;1.80;;;13.30;99.90;;;;;;5054148;28;20079;-73
2023/09/21 02:10:15;;;;;;;4.07;2.00;;;13.20;99.90;;;;;;5054062;28;20029;-73
2023/09/21 02:12:57;;;;;;;4.70;2.00;;;13.20;99.90;;;;;;5053935;28;20400;-73
2023/09/21 02:15:27;;;;;;;3.80;1.45;;;13.20;99.90;;;;;;5054088;28;20594;-73
2023/09/21 02:17:55;;;;;;;3.63;1.77;;;13.10;99.90;;;;;;5038928;28;20040;-73
2023/09/21 02:20:24;;;;;;;3.95;1.90;;;13.10;99.90;;;;;;5073859;28;20024;-73
2023/09/21 02:22:52;;;;;;;3.03;1.90;;;13.10;99.90;;;;;;5073951;28;20537;-73
2023/09/21 02:25:19;;;;;;;2.65;1.70;;;13.10;99.90;;;;;;5073819;28;20028;-73
2023/09/21 02:27:48;;;;;;;3.10;2.10;;;13.10;99.90;;;;;;5073618;28;20027;-73
2023/09/21 02:30:17;;;;;;;4.75;2.88;;;13.10;99.90;;;;;;5073472;28;20048;-73
2023/09/21 02:32:44;;;;;;;5.72;3.10;;;13.10;99.90;;;;;;5073462;28;20028;-73
2023/09/21 02:35:14;;;;;;;5.25;3.60;;;13.10;99.90;;;;;;5073683;28;20033;-74
2023/09/21 02:37:44;;;;;;;4.57;2.97;;;13.10;99.90;;;;;;5073417;28;20404;-73
2023/09/21 02:40:14;;;;;;;6.40;2.70;;;13.10;99.90;;;;;;5073323;28;20073;-73
2023/09/21 02:42:44;;;;;;;3.30;2.28;;;13.10;99.90;;;;;;5073479;28;20039;-73
2023/09/21 02:45:11;;;;;;;4.57;2.42;;;13.00;99.90;;;;;;5074134;28;20500;-73
2023/09/21 02:47:37;;;;;;;4.13;2.20;;;13.00;99.90;;;;;;5073624;28;20025;-73
2023/09/21 02:50:11;;;;;;;3.92;1.88;;;13.00;99.90;;;;;;5073784;28;20464;-73
2023/09/21 02:52:38;;;;;;;5.43;2.05;;;12.90;99.90;;;;;;5073881;28;20104;-73
2023/09/21 02:55:04;;;;;;;3.53;1.70;;;12.90;99.90;;;;;;5073666;28;20109;-73
2023/09/21 02:57:30;;;;;;;4.88;1.80;;;12.80;99.90;;;;;;5074139;28;20036;-73
2023/09/21 02:59:57;;;;;;;4.10;1.70;;;12.70;99.90;;;;;;5074766;28;20049;-73
2023/09/21 03:02:22;;;;;;;3.30;2.00;;;12.70;99.90;;;;;;5073773;28;20020;-73
2023/09/21 03:04:52;;;;;;;4.70;2.40;;;12.70;99.90;;;;;;5072231;28;20035;-73
2023/09/21 03:07:18;;;;;;;3.60;1.90;;;12.60;99.90;;;;;;5055429;28;20029;-73
2023/09/21 03:09:44;;;;;;;3.50;2.00;;;12.60;99.90;;;;;;5074555;28;20032;-73
2023/09/21 03:12:10;;;;;;;3.80;1.80;;;12.50;99.90;;;;;;5074062;28;20028;-73
2023/09/21 03:14:35;;;;;;;3.92;1.90;;;12.50;99.90;;;;;;5073894;28;20035;-73
2023/09/21 03:17:01;;;;;;;3.97;1.73;;;12.50;99.90;;;;;;5072491;28;20483;-73
2023/09/21 03:19:27;;;;;;;3.78;1.80;;;12.50;99.90;;;;;;5072235;28;20104;-73
2023/09/21 03:21:53;;;;;;;3.67;2.05;;;12.50;99.90;;;;;;5073430;28;20048;-73
2023/09/21 03:24:19;;;;;;;3.78;1.90;;;12.50;99.90;;;;;;5073485;28;20073;-72
2023/09/21 03:26:45;;;;;;;2.65;1.67;;;12.50;99.90;;;;;;5073367;28;20108;-73
2023/09/21 03:29:10;;;;;;;3.42;1.55;;;12.50;99.90;;;;;;5073567;28;20056;-73
2023/09/21 03:31:36;;;;;;;3.60;1.90;;;12.40;99.90;;;;;;5073555;28;20060;-73
2023/09/21 03:34:02;;;;;;;3.08;1.80;;;12.40;99.90;;;;;;5073303;28;20039;-73
2023/09/21 03:36:28;;;;;;;4.07;1.80;;;12.40;99.90;;;;;;5055435;28;20029;-73
2023/09/21 03:38:54;;;;;;;2.88;1.60;;;12.40;99.90;;;;;;5073608;28;20036;-73
2023/09/21 03:41:20;;;;;;;5.03;1.67;;;12.40;99.90;;;;;;5071915;28;20032;-73
2023/09/21 03:43:46;;;;;;;4.85;1.80;;;12.40;99.90;;;;;;5073691;28;20028;-73
2023/09/21 03:46:12;;;;;;;4.07;2.15;;;12.40;99.90;;;;;;5054183;28;20032;-73
2023/09/21 03:48:38;;;;;;;5.78;1.98;;;12.30;99.90;;;;;;5072240;28;20438;-73
2023/09/21 03:51:03;;;;;;;2.80;1.92;;;12.30;99.90;;;;;;5072599;28;20052;-73
2023/09/21 03:53:31;;;;;;;2.92;2.00;;;12.20;99.90;;;;;;5075055;28;20043;-73
2023/09/21 03:55:56;;;;;;;3.88;2.10;;;12.20;99.90;;;;;;5076876;28;20025;-73
2023/09/21 03:58:22;;;;;;;4.60;1.80;;;12.20;99.90;;;;;;5075052;28;20052;-74
2023/09/21 04:00:48;;;;;;;3.85;2.10;;;12.20;99.90;;;;;;5076567;28;20056;-73
2023/09/21 04:03:15;;;;;;;2.50;1.77;;;12.10;99.90;;;;;;5076891;28;20075;-73
2023/09/21 04:05:42;;;;;;;4.35;2.22;;;12.10;99.90;;;;;;5076660;28;20052;-73
2023/09/21 04:08:08;;;;;;;2.97;2.08;;;12.10;99.90;;;;;;5077408;28;20450;-73
2023/09/21 04:10:35;;;;;;;3.42;1.85;;;12.10;99.90;;;;;;5075430;28;20090;-73
2023/09/21 04:13:01;;;;;;;2.30;1.58;;;12.10;99.90;;;;;;5075114;28;20029;-73
2023/09/21 04:15:29;;;;;;;3.05;1.85;;;12.10;99.90;;;;;;5058470;28;20032;-73
2023/09/21 04:17:57;;;;;;;3.58;2.00;;;12.00;99.90;;;;;;5076247;28;20468;-73
2023/09/21 04:20:23;;;;;;;2.88;1.63;;;12.00;99.90;;;;;;5076032;28;20070;-74
2023/09/21 04:22:50;;;;;;;5.55;2.63;;;12.00;99.90;;;;;;5058646;28;20115;-74
2023/09/21 04:25:17;;;;;;;3.03;2.10;;;12.00;99.90;;;;;;5075186;28;20020;-73
2023/09/21 04:27:44;;;;;;;3.13;1.85;;;11.90;99.90;;;;;;5076037;28;20079;-73
2023/09/21 04:30:14;;;;;;;3.35;1.75;;;11.90;99.90;;;;;;5076082;28;20028;-73
2023/09/21 04:32:46;;;;;;;2.75;1.60;;;11.90;99.90;;;;;;5076265;28;20143;-73
2023/09/21 04:35:13;;;;;;;4.55;1.80;;;11.90;99.90;;;;;;5076130;28;20032;-73
2023/09/21 04:37:39;;;;;;;3.67;2.15;;;11.90;99.90;;;;;;5075967;28;20029;-72
2023/09/21 04:40:09;;;;;;;4.57;1.83;;;11.90;99.90;;;;;;5075923;28;20028;-73
2023/09/21 04:42:40;;;;;;;3.15;1.50;;;11.90;99.90;;;;;;5074604;28;20484;-73
2023/09/21 04:45:11;;;;;;;2.80;1.92;;;11.90;99.90;;;;;;5076086;28;20053;-73
2023/09/21 04:47:41;;;;;;;5.20;2.08;;;11.90;99.90;;;;;;5075482;28;20024;-73
2023/09/21 04:50:09;;;;;;;3.63;2.70;;;11.80;99.90;;;;;;5075919;28;20028;-73
2023/09/21 04:52:35;;;;;;;3.00;2.00;;;11.70;99.90;;;;;;5075752;28;20078;-73
2023/09/21 04:55:03;;;;;;;4.72;1.98;;;11.60;99.90;;;;;;5075691;28;20028;-73
2023/09/21 04:57:30;;;;;;;6.63;2.05;;;11.60;99.90;;;;;;5074354;28;20024;-73
2023/09/21 04:59:57;;;;;;;4.80;2.20;;;11.60;99.90;;;;;;5075859;28;20440;-73
2023/09/21 05:02:22;;;;;;;6.95;2.53;;;11.60;99.90;;;;;;5074874;28;20053;-73
2023/09/21 05:04:50;;;;;;;5.32;1.98;;;11.60;99.90;;;;;;5075627;28;20043;-73
2023/09/21 05:07:17;;;;;;;5.82;2.97;;;11.50;99.90;;;;;;5075607;28;20074;-73
2023/09/21 05:09:43;;;;;;;5.18;2.30;;;11.50;99.90;;;;;;5057115;28;20119;-74
2023/09/21 05:12:09;;;;;;;4.32;2.00;;;11.50;99.90;;;;;;5075219;28;20033;-74
2023/09/21 05:14:35;;;;;;;3.60;2.10;;;11.50;99.90;;;;;;5075415;28;20032;-73
2023/09/21 05:17:00;;;;;;;4.43;2.03;;;11.50;99.90;;;;;;5075333;28;20029;-74
2023/09/21 05:19:26;;;;;;;4.53;2.28;;;11.50;99.90;;;;;;5075260;28;20103;-73
2023/09/21 05:21:56;;;;;;;7.65;2.80;;;11.50;99.90;;;;;;5075200;28;20102;-73
2023/09/21 05:24:23;;;;;;;5.75;2.20;;;11.50;99.90;;;;;;5075765;28;20032;-73
2023/09/21 05:26:49;;;;;;;5.63;2.78;;;11.50;99.90;;;;;;5074890;28;20028;-74
2023/09/21 05:29:14;;;;;;;4.38;2.20;;;11.50;99.90;;;;;;5061371;23;21199;-77
2023/09/21 05:31:40;;;;;;;4.35;2.55;;;11.40;99.90;;;;;;5046307;28;20471;-77
2023/09/21 05:34:06;;;;;;;3.88;2.33;;;11.40;99.90;;;;;;5028729;28;20427;-77
2023/09/21 05:36:31;;;;;;;3.17;2.15;;;11.50;99.90;;;;;;5038089;28;20504;-77
2023/09/21 05:38:57;;;;;;;4.07;2.28;;;11.50;99.90;;;;;;5041173;28;20029;-77
2023/09/21 05:41:22;;;;;;;5.55;2.70;;;11.50;99.90;;;;;;5044323;28;20021;-77
2023/09/21 05:43:49;;;;;;;4.68;2.10;;;11.60;99.90;;;;;;5023078;28;20029;-77
2023/09/21 05:46:14;;;;;;;4.57;2.00;;;11.60;99.90;;;;;;5047009;28;20169;-77
2023/09/21 05:48:40;;;;;;;4.13;2.40;;;11.70;99.90;;;;;;5026491;28;20056;-77
2023/09/21 05:51:06;;;;;;;5.00;2.03;;;11.70;99.90;;;;;;5037128;28;20460;-77
2023/09/21 05:53:32;;;;;;;4.40;2.67;;;11.70;99.90;;;;;;5054681;28;20521;-76
2023/09/21 05:55:58;;;;;;;5.93;2.30;;;11.70;99.90;;;;;;5034147;28;20061;-76
2023/09/21 05:58:24;;;;;;;3.42;2.50;;;11.70;99.90;;;;;;5042777;28;20053;-77
2023/09/21 06:00:49;;;;;;;5.00;2.60;;;11.60;99.90;;;;;;5045860;28;20481;-77
2023/09/21 06:03:15;;;;;;;4.97;2.50;;;11.70;99.90;;;;;;5032814;28;20083;-77
2023/09/21 06:05:45;;;;;;;5.57;2.70;;;11.70;99.90;;;;;;5043859;28;20104;-77
2023/09/21 06:08:10;;;;;;;6.47;2.65;;;11.80;99.90;;;;;;5035428;28;20029;-77
2023/09/21 06:10:36;;;;;;;4.97;2.40;;;11.80;99.90;;;;;;5035278;28;20051;-77
2023/09/21 06:13:07;;;;;;;3.45;2.40;;;11.90;99.90;;;;;;5016986;28;20032;-77
2023/09/21 06:15:33;;;;;;;4.88;2.67;;;12.00;99.90;;;;;;5019179;28;20032;-77
2023/09/21 06:17:58;;;;;;;6.20;2.58;;;12.00;99.90;;;;;;5054817;28;20528;-77
2023/09/21 06:20:26;;;;;;;4.97;2.47;;;12.10;99.90;;;;;;5055180;28;20487;-77
2023/09/21 06:22:52;;;;;;;4.43;2.80;;;12.10;99.90;;;;;;5054696;28;20362;-77
2023/09/21 06:25:20;;;;;;;3.97;2.50;;;12.20;99.90;;;;;;5055005;28;20029;-77
2023/09/21 06:27:46;;;;;;;5.53;2.80;;;12.30;99.90;;;;;;5054667;28;20108;-77
2023/09/21 06:30:12;;;;;;;3.88;2.55;;;12.30;99.90;;;;;;5036906;28;20060;-77
2023/09/21 06:32:39;;;;;;;5.72;2.95;;;12.40;99.90;;;;;;5015094;28;20033;-77
2023/09/21 06:35:06;;;;;;;8.10;3.00;;;12.50;99.90;;;;;;5057993;28;20111;-77
2023/09/21 06:37:33;;;;;;;6.15;3.50;;;12.50;99.90;;;;;;5032392;28;20021;-77
2023/09/21 06:40:00;;;;;;;6.55;3.58;;;12.60;99.90;;;;;;5025258;28;20074;-77
2023/09/21 06:42:26;;;;;;;4.22;3.17;;;12.60;99.90;;;;;;5037720;28;20028;-77
2023/09/21 06:44:54;;;;;;;4.90;3.50;;;12.70;99.90;;;;;;5035499;28;20025;-77
2023/09/21 06:47:22;;;;;;;4.30;2.97;;;12.80;99.90;;;;;;5052768;28;20017;-77
2023/09/21 06:49:53;;;;;;;7.50;3.60;;;12.80;99.90;;;;;;5035710;28;20418;-77
2023/09/21 06:52:19;;;;;;;8.15;3.50;;;12.90;99.90;;;;;;5035269;28;20022;-77
2023/09/21 06:54:45;;;;;;;5.40;3.05;;;13.00;99.90;;;;;;5034047;28;20504;-77
2023/09/21 06:57:11;;;;;;;8.23;3.30;;;13.00;99.90;;;;;;5017866;28;20075;-77
2023/09/21 06:59:38;;;;;;;7.20;3.53;;;13.10;99.90;;;;;;5001810;28;20026;-77
2023/09/21 07:02:04;;;;;;;6.10;3.60;;;13.20;99.90;;;;;;5035465;28;20022;-77
2023/09/21 07:04:33;;;;;;;5.50;3.35;;;13.20;99.90;;;;;;5017801;28;20071;-77
2023/09/21 07:07:04;;;;;;;6.93;3.63;;;13.30;99.90;;;;;;5018255;28;20027;-77
2023/09/21 07:09:30;;;;;;;;;;;13.30;99.90;;;;;;5002262;28;20488;-78
2023/09/21 07:11:56;;;;;;;6.20;3.25;;;13.40;99.90;;;;;;5033818;28;19905;-78
2023/09/21 07:14:22;;;;;;;8.57;3.97;;;13.50;99.90;;;;;;5001519;28;20060;-78
2023/09/21 07:16:48;;;;;;;7.10;4.45;;;13.60;99.90;;;;;;5048400;28;20164;-77
2023/09/21 07:19:14;;;;;;;6.72;3.97;;;13.70;99.90;;;;;;5020870;28;20056;-77
2023/09/21 07:21:40;;;;;;;8.07;4.50;;;13.80;99.90;;;;;;5055261;28;20391;-77
2023/09/21 07:24:07;;;;;;;6.57;4.13;;;13.90;99.90;;;;;;5055067;28;20105;-77
2023/09/21 07:26:34;;;;;;;7.75;4.78;;;14.00;99.90;;;;;;5039636;28;20033;-77
2023/09/21 07:29:05;;;;;;;9.20;5.10;;;14.10;99.90;;;;;;5041503;28;20500;-77
2023/09/21 07:31:33;;;;;;;10.65;5.80;;;14.20;99.90;;;;;;5059630;28;20112;-77
2023/09/21 07:34:01;;;;;;;10.20;5.78;;;14.30;99.90;;;;;;5053132;28;20033;-77
2023/09/21 07:36:27;;;;;;;9.23;5.22;;;14.40;99.90;;;;;;5047272;28;20075;-77
2023/09/21 07:38:55;;;;;;;8.05;5.30;;;14.50;99.90;;;;;;5044117;28;20025;-77
2023/09/21 07:41:21;;;;;;;11.85;7.10;;;14.70;99.90;;;;;;5038942;28;20420;-77
2023/09/21 07:43:48;;;;;;;11.40;7.57;;;14.80;99.90;;;;;;5052161;28;20032;-77
2023/09/21 07:46:15;;;;;;;10.60;6.90;;;14.90;99.90;;;;;;5059257;28;20017;-77
2023/09/21 07:48:40;;;;;;;13.15;6.90;;;15.00;99.90;;;;;;5041338;28;20515;-77
2023/09/21 07:51:07;;;;;;;12.18;8.10;;;15.10;99.90;;;;;;5059062;28;20037;-77
2023/09/21 07:53:35;;;;;;;12.90;8.15;;;15.20;99.90;;;;;;5058785;28;20025;-77
2023/09/21 07:56:10;;;;;;;14.88;8.65;;;15.30;99.90;;;;;;5058727;28;20512;-77
2023/09/21 07:58:36;;;;;;;12.25;8.65;;;15.50;99.90;;;;;;5058814;28;20025;-77
2023/09/21 08:01:02;;;;;;;17.35;9.75;;;15.60;99.90;;;;;;5058802;28;20476;-77
2023/09/21 08:03:28;;;;;;;13.80;10.82;;;15.70;99.90;;;;;;5058055;28;20435;-78
2023/09/21 08:05:54;;;;;;;14.15;9.02;;;15.90;99.90;;;;;;5040762;28;20021;-78
2023/09/21 08:08:20;;;;;;;14.35;8.77;;;16.00;99.90;;;;;;5040766;28;20029;-77
2023/09/21 08:10:47;;;;;;;12.23;8.60;;;16.10;99.90;;;;;;5056647;28;20025;-77
2023/09/21 08:13:12;;;;;;;13.00;9.20;;;16.20;99.90;;;;;;5038316;28;20492;-77
2023/09/21 08:15:38;;;;;;;11.73;9.18;;;16.30;99.90;;;;;;5056545;28;20116;-77
2023/09/21 08:18:07;;;;;;;10.52;7.95;;;16.40;99.90;;;;;;5056383;28;20057;-77
2023/09/21 08:20:33;;;;;;;12.85;7.88;;;16.50;99.90;;;;;;5046043;28;20020;-77
2023/09/21 08:22:59;;;;;;;13.20;7.30;;;16.70;99.90;;;;;;5046208;28;20041;-77
2023/09/21 08:25:25;;;;;;;9.85;5.85;;;16.80;99.90;;;;;;5037471;28;20049;-77
2023/09/21 08:27:51;;;;;;;8.90;6.40;;;16.90;99.90;;;;;;5033721;28;20487;-77
2023/09/21 08:30:17;;;;;;;11.60;7.60;;;17.10;99.90;;;;;;5044774;28;20034;-77
2023/09/21 08:32:43;;;;;;;9.48;6.43;;;17.20;99.90;;;;;;5033599;28;20029;-77
2023/09/21 08:35:11;;;;;;;13.25;8.10;;;17.30;99.90;;;;;;5035345;28;20060;-77
2023/09/21 08:37:36;;;;;;;9.30;6.40;;;17.40;99.90;;;;;;5039433;28;20022;-77
2023/09/21 08:40:06;;;;;;;10.07;7.72;;;17.50;99.90;;;;;;5044868;28;20036;-77
2023/09/21 08:42:32;;;;;;;11.43;7.28;;;17.70;99.90;;;;;;5040755;28;20021;-77
2023/09/21 08:44:59;;;;;;;8.88;5.68;;;17.80;99.90;;;;;;5045378;28;20481;-77
2023/09/21 08:47:28;;;;;;;9.07;5.85;;;18.00;99.90;;;;;;5057665;28;20032;-77
2023/09/21 08:49:54;;;;;;;7.53;4.95;;;18.10;99.90;;;;;;5055122;28;20025;-77
2023/09/21 08:52:21;;;;;;;5.57;4.30;;;18.20;99.90;;;;;;5037314;28;20033;-77
2023/09/21 08:54:48;;;;;;;7.35;4.82;;;18.30;99.90;;;;;;5056102;28;20385;-77
2023/09/21 08:57:14;;;;;;;6.47;4.35;;;18.50;99.90;;;;;;5055837;28;20031;-77
2023/09/21 08:59:44;;;;;;;10.63;4.90;;;18.60;99.90;;;;;;5037909;28;20033;-77
2023/09/21 09:02:12;;;;;;;8.13;4.47;;;18.70;99.90;;;;;;5055835;28;20028;-77
2023/09/21 09:04:42;;;;;;;6.43;4.63;;;18.80;99.90;;;;;;5037761;28;20035;-77
2023/09/21 09:07:08;;;;;;;6.32;3.63;;;19.00;99.90;;;;;;5055891;28;20143;-77
2023/09/21 09:09:35;;;;;;;5.13;3.63;;;19.10;99.90;;;;;;5051271;28;20039;-77
2023/09/21 09:12:01;;;;;;;6.03;3.53;;;19.30;99.90;;;;;;5042378;28;20507;-77
2023/09/21 09:14:27;;;;;;;7.72;3.70;;;19.50;99.90;;;;;;5043826;28;20025;-77
2023/09/21 09:16:52;;;;;;;4.78;3.20;;;19.60;99.90;;;;;;5045845;28;20416;-77
2023/09/21 09:19:18;;;;;;;6.15;3.30;;;19.70;99.90;;;;;;5050809;28;20036;-77
2023/09/21 09:21:49;;;;;;;6.88;3.30;;;19.90;99.90;;;;;;5056565;28;20063;-77
2023/09/21 09:24:16;;;;;;;7.55;3.78;;;20.00;99.90;;;;;;5033436;28;20029;-77
2023/09/21 09:26:41;;;;;;;4.50;2.90;;;20.10;99.90;;;;;;5022931;28;20037;-77
2023/09/21 09:29:09;;;;;;;5.30;3.08;;;20.20;99.90;;;;;;5042717;28;20029;-77
2023/09/21 09:31:37;;;;;;;5.93;2.88;;;20.40;99.90;;;;;;5010345;28;20104;-77
2023/09/21 09:34:04;;;;;;;5.28;2.80;;;20.50;99.90;;;;;;5035569;28;20029;-77
2023/09/21 09:36:32;;;;;;;5.47;3.20;;;20.70;99.90;;;;;;5043056;28;20025;-77
2023/09/21 09:39:01;;;;;;;4.93;2.78;;;20.80;99.90;;;;;;5042379;28;20036;-77
2023/09/21 09:41:31;;;;;;;6.00;2.92;;;21.00;99.90;;;;;;5033497;28;20025;-77
2023/09/21 09:43:59;;;;;;;3.92;2.45;;;21.10;99.90;;;;;;5035132;28;20029;-77
2023/09/21 09:46:26;;;;;;;5.30;2.88;;;21.20;99.90;;;;;;5037371;28;20021;-77
2023/09/21 09:48:57;;;;;;;5.97;2.88;;;21.40;99.90;;;;;;5037008;28;20428;-77
2023/09/21 09:51:26;;;;;;;;;;;21.40;99.90;;;;;;5052029;28;20112;-77
2023/09/21 09:53:56;;;;;;;4.95;2.15;;;21.50;99.90;;;;;;5041168;28;20365;-77
2023/09/21 09:56:23;;;;;;;3.33;2.05;;;21.70;99.90;;;;;;5045784;28;20029;-77
2023/09/21 09:58:49;;;;;;;5.72;2.10;;;21.80;99.90;;;;;;5033518;28;20038;-77
2023/09/21 10:01:17;;;;;;;3.60;1.90;;;21.90;99.90;;;;;;5034947;28;20049;-77
2023/09/21 10:03:43;;;;;;;3.35;1.88;;;22.10;99.90;;;;;;5034926;28;20497;-77
2023/09/21 10:06:14;;;;;;;5.68;2.50;;;22.20;99.90;;;;;;5033553;28;20026;-77
2023/09/21 10:08:41;;;;;;;3.22;1.75;;;22.30;99.90;;;;;;5034839;28;20083;-77
2023/09/21 10:11:07;;;;;;;2.80;1.70;;;22.30;99.90;;;;;;5051184;28;20393;-76
2023/09/21 10:13:55;;;;;;;2.67;1.58;;;22.40;99.90;;;;;;5036566;28;20025;-77
2023/09/21 10:16:24;;;;;;;3.22;1.33;;;22.50;99.90;;;;;;5055000;28;20024;-77
2023/09/21 10:19:00;;;;;;;2.60;1.42;;;22.60;99.90;;;;;;5020308;28;20047;-77
2023/09/21 10:21:33;;;;;;;4.20;1.60;;;22.70;99.90;;;;;;5054710;28;20385;-77
2023/09/21 10:24:18;;;;;;;4.00;1.65;;;22.80;99.90;;;;;;5054806;28;20191;-77
2023/09/21 10:26:56;;;;;;;4.68;1.65;;;22.90;99.90;;;;;;5054525;28;20017;-77
2023/09/21 10:29:39;;;;;;;3.42;1.60;;;23.00;99.90;;;;;;5036170;28;20518;-77
2023/09/21 10:32:09;;;;;;;4.45;1.60;;;23.00;99.60;;;;;;5054617;28;20029;-77
2023/09/21 10:34:42;;;;;;;4.38;1.40;;;23.20;99.90;;;;;;5054652;28;20021;-77
2023/09/21 10:37:11;;;;;;;3.42;1.77;;;23.30;99.90;;;;;;5037203;28;20029;-77
2023/09/21 10:39:39;;;;;;;3.03;1.40;;;23.40;99.10;;;;;;5061515;28;20029;-77
2023/09/21 10:42:05;;;;;;;2.20;1.30;;;23.60;99.30;;;;;;5053168;28;20389;-77
2023/09/21 10:44:57;;;;;;;2.85;1.35;;;23.70;98.60;;;;;;5052809;28;20021;-78
2023/09/21 10:47:29;;;;;;;2.75;1.10;;;23.90;98.40;;;;;;5052931;28;20381;-77
2023/09/21 10:50:02;;;;;;;2.25;1.23;;;24.00;96.30;;;;;;5036140;28;20028;-78
2023/09/21 10:52:28;;;;;;;2.25;1.10;;;24.10;95.40;;;;;;5054015;28;20021;-77
2023/09/21 10:54:55;;;;;;;4.07;1.42;;;24.20;96.40;;;;;;5053816;28;20031;-77
2023/09/21 10:57:24;;;;;;;3.35;1.15;;;24.40;95.60;;;;;;5037253;28;20110;-77
2023/09/21 10:59:53;;;;;;;2.08;1.00;;;24.50;93.80;;;;;;5055068;28;20116;-77
2023/09/21 11:02:20;;;;;;;2.92;1.20;;;24.50;93.10;;;;;;5054523;28;20025;-77
2023/09/21 11:04:47;;;;;;;2.83;1.23;;;24.60;93.00;;;;;;5054815;28;20021;-77
2023/09/21 11:07:13;;;;;;;2.88;1.30;;;24.70;92.60;;;;;;5054764;28;20021;-78
2023/09/21 11:09:40;;;;;;;1.80;1.00;;;24.90;91.40;;;;;;5054653;28;20033;-76
2023/09/21 11:12:08;;;;;;;2.47;1.10;;;24.90;90.00;;;;;;5053270;28;20055;-76
2023/09/21 11:14:34;;;;;;;4.47;1.10;;;25.10;90.70;;;;;;5056826;28;20017;-80
2023/09/21 11:17:00;;;;;;;3.47;1.17;;;25.20;90.60;;;;;;5060664;28;20067;-80
2023/09/21 11:19:26;;;;;;;2.83;1.08;;;25.20;90.10;;;;;;5058312;28;20037;-77
2023/09/21 11:21:52;;;;;;;5.13;1.00;;;25.30;89.70;;;;;;5059858;28;20017;-80
2023/09/21 11:24:18;;;;;;;2.45;1.00;;;25.40;87.10;;;;;;5060215;28;20078;-79
2023/09/21 11:26:54;;;;;;;1.90;0.90;;;25.50;87.80;;;;;;5043027;28;20408;-79
2023/09/21 11:29:20;;;;;;;3.28;0.77;;;25.50;82.80;;;;;;5056848;28;20041;-78
2023/09/21 11:31:49;;;;;;;1.67;0.90;;;25.60;74.00;;;;;;5054460;28;20079;-77
2023/09/21 11:34:16;;;;;;;2.10;0.77;;;25.70;79.30;;;;;;5053665;28;20025;-77
2023/09/21 11:36:43;;;;;;;3.75;0.70;;;25.80;79.70;;;;;;5054051;28;20037;-77
2023/09/21 11:39:11;;;;;;;3.80;0.93;;;25.80;83.10;;;;;;5052664;28;20037;-77
2023/09/21 11:41:39;;;;;;;2.05;0.98;;;26.00;80.90;;;;;;5041878;28;20022;-78
2023/09/21 11:44:05;;;;;;;3.17;0.88;;;26.00;82.30;;;;;;5076879;22;20037;-73
2023/09/21 11:46:32;;;;;;;4.43;1.02;;;26.10;82.90;;;;;;5073072;28;20077;-73
2023/09/21 11:52:23;;;;;;;1.50;0.70;;;26.30;84.40;;;;;;5073240;28;20019;-73
2023/09/21 11:54:49;;;;;;;3.15;0.90;;;26.40;80.70;;;;;;5074763;28;20530;-73
2023/09/21 11:57:15;;;;;;;1.48;0.68;;;26.40;78.60;;;;;;5083681;22;20544;-79
2023/09/21 11:59:42;;;;;;;3.17;0.98;;;26.50;78.00;;;;;;5077213;28;20044;-79
2023/09/21 12:02:17;;;;;;;2.78;0.60;;;26.40;74.60;;;;;;5077811;28;20051;-79
2023/09/21 12:04:43;;;;;;;2.17;0.73;;;26.40;76.60;;;;;;5078183;28;20043;-79
2023/09/21 12:07:12;;;;;;;0.90;0.55;;;26.40;76.30;;;;;;5076398;28;20024;-77
2023/09/21 12:09:42;;;;;;;2.88;0.60;;;26.50;75.20;;;;;;5055480;28;20452;-77
2023/09/21 12:12:13;;;;;;;1.90;0.73;;;26.70;78.90;;;;;;5056741;28;20020;-77
2023/09/21 12:14:40;;;;;;;;;;;26.70;78.60;;;;;;5076916;28;20028;-78
2023/09/21 12:17:11;;;;;;;3.05;1.08;;;26.80;72.90;;;;;;5077049;28;19962;-77
2023/09/21 12:19:38;;;;;;;3.28;0.88;;;26.70;73.60;;;;;;5077759;28;20029;-77
2023/09/21 12:22:05;;;;;;;2.95;0.90;;;26.80;70.00;;;;;;5078338;28;20468;-77
2023/09/21 12:24:35;;;;;;;2.15;0.70;;;26.80;69.30;;;;;;5070466;28;20027;-78
2023/09/21 12:27:06;;;;;;;2.15;0.70;;;26.80;73.00;;;;;;5067622;28;20060;-78
2023/09/21 12:29:36;;;;;;;2.58;0.75;;;26.90;75.70;;;;;;5054614;28;20064;-77
2023/09/21 12:32:04;;;;;;;2.20;0.60;;;27.00;67.10;;;;;;5065340;28;20029;-77
2023/09/21 12:34:34;;;;;;;4.03;0.90;;;27.10;70.10;;;;;;5062635;28;20040;-78
2023/09/21 12:37:00;;;;;;;1.57;0.70;;;27.20;71.30;;;;;;5039095;28;20060;-78
2023/09/21 12:39:26;;;;;;;2.60;0.65;;;27.30;69.40;;;;;;5066462;28;20274;-78
2023/09/21 12:41:51;;;;;;;3.40;0.70;;;27.40;72.80;;;;;;5057186;28;20431;-77
2023/09/21 12:44:19;;;;;;;2.65;0.90;;;27.50;69.80;;;;;;5055855;28;20033;-78
2023/09/21 12:46:44;;;;;;;2.03;0.70;;;27.50;70.90;;;;;;5069108;28;20016;-78
2023/09/21 12:49:10;;;;;;;1.38;0.60;;;27.70;70.00;;;;;;5065290;28;20078;-77
2023/09/21 12:51:37;;;;;;;1.70;0.65;;;27.80;70.80;;;;;;5063196;28;20036;-77
2023/09/21 12:54:07;;;;;;;1.55;0.47;;;27.90;70.90;;;;;;5063111;28;20047;-78